Time;durP1;ratioP1;P1;durP2;ratioP2;P2;SDS_P1;SDS_P2;PMS_P1;PMS_P2;Temp;Humidity;BMP_temperature;BMP_pressure;BME280_temperature;BME280_humidity;BME280_pressure;Samples;Min_cycle;Max_cycle;Signal;HPM_P1;HPM_P2
2020/12/24 00:02:09;;;;;;;19.13;2.67;;;5.60;95.20;;;;;;4997486;28;20039;-79
2020/12/24 00:04:35;;;;;;;9.02;1.75;;;6.00;95.30;;;;;;4986448;28;20129;-79
2020/12/24 00:07:00;;;;;;;7.30;1.60;;;5.80;95.30;;;;;;4984507;28;20042;-79
2020/12/24 00:09:26;;;;;;;6.45;1.13;;;5.90;95.10;;;;;;4998853;28;20129;-79
2020/12/24 00:11:52;;;;;;;11.32;1.58;;;5.60;94.80;;;;;;4974772;28;20117;-79
2020/12/24 00:14:17;;;;;;;8.43;0.95;;;5.80;94.40;;;;;;4994443;28;20031;-78
2020/12/24 00:16:43;;;;;;;11.85;1.80;;;5.70;94.00;;;;;;4985238;28;20453;-80
2020/12/24 00:19:09;;;;;;;5.38;0.95;;;5.80;93.70;;;;;;4980682;28;22016;-79
2020/12/24 00:21:37;;;;;;;11.32;1.35;;;5.60;93.80;;;;;;4984824;28;20042;-80
2020/12/24 00:24:03;;;;;;;8.02;1.10;;;6.20;94.10;;;;;;4982514;28;20113;-80
2020/12/24 00:26:29;;;;;;;10.15;1.35;;;5.50;94.10;;;;;;4993936;28;20701;-80
2020/12/24 00:28:54;;;;;;;15.90;1.65;;;5.50;94.30;;;;;;4985143;28;20046;-80
2020/12/24 00:31:21;;;;;;;5.95;1.25;;;5.90;94.20;;;;;;4984442;28;20420;-80
2020/12/24 00:33:46;;;;;;;15.82;1.50;;;5.50;94.10;;;;;;4971516;28;20042;-79
2020/12/24 00:36:12;;;;;;;5.35;0.80;;;5.50;94.30;;;;;;4966351;28;21572;-79
2020/12/24 00:38:38;;;;;;;8.02;1.20;;;5.50;94.20;;;;;;4953795;28;20045;-80
2020/12/24 00:41:06;;;;;;;13.43;1.50;;;5.40;94.30;;;;;;4973342;28;20043;-79
2020/12/24 00:43:32;;;;;;;7.10;0.80;;;5.40;94.20;;;;;;4954165;28;20427;-78
2020/12/24 00:45:58;;;;;;;7.55;1.38;;;5.70;94.00;;;;;;4984641;28;20034;-78
2020/12/24 00:48:23;;;;;;;8.82;0.95;;;5.40;94.00;;;;;;4982568;28;20046;-78
2020/12/24 00:50:49;;;;;;;9.05;1.25;;;5.50;93.90;;;;;;4974218;28;20176;-78
2020/12/24 00:53:15;;;;;;;8.30;0.90;;;5.40;93.90;;;;;;4974075;28;20697;-79
2020/12/24 00:55:41;;;;;;;6.55;1.10;;;5.50;94.20;;;;;;4967627;28;20126;-79
2020/12/24 00:58:07;;;;;;;6.15;1.33;;;5.40;94.10;;;;;;4965846;28;20043;-78
2020/12/24 01:00:33;;;;;;;8.50;1.25;;;5.40;94.10;;;;;;4983655;28;20062;-79
2020/12/24 01:02:59;;;;;;;7.13;0.98;;;5.40;93.80;;;;;;4988175;28;20539;-80
2020/12/24 01:05:24;;;;;;;11.70;1.05;;;5.40;93.80;;;;;;4981996;28;20039;-79
2020/12/24 01:07:50;;;;;;;3.75;0.60;;;5.40;93.50;;;;;;4990141;28;20073;-80
2020/12/24 01:10:17;;;;;;;7.38;1.17;;;5.60;93.30;;;;;;4980463;28;20093;-76
2020/12/24 01:12:42;;;;;;;6.53;0.93;;;5.40;93.40;;;;;;4966856;28;20042;-78
2020/12/24 01:15:11;;;;;;;5.82;0.90;;;5.30;93.40;;;;;;4971511;28;20100;-77
2020/12/24 01:17:37;;;;;;;4.10;0.75;;;5.30;93.50;;;;;;4970810;28;20115;-77
2020/12/24 01:20:07;;;;;;;7.32;1.02;;;5.30;93.30;;;;;;4986092;28;20099;-77
2020/12/24 01:22:33;;;;;;;8.73;1.40;;;5.30;93.30;;;;;;4987097;28;20042;-78
2020/12/24 01:24:59;;;;;;;9.35;0.90;;;5.40;93.10;;;;;;4996167;28;20047;-79
2020/12/24 01:27:25;;;;;;;4.07;0.70;;;5.30;93.10;;;;;;5015021;28;20084;-78
2020/12/24 01:29:52;;;;;;;5.45;0.80;;;5.30;92.60;;;;;;4971371;28;20030;-81
2020/12/24 01:32:19;;;;;;;3.53;0.50;;;5.30;92.30;;;;;;4980580;28;20043;-80
2020/12/24 01:34:44;;;;;;;0.95;0.50;;;5.40;92.30;;;;;;4988866;28;20034;-79
2020/12/24 01:37:10;;;;;;;5.13;0.80;;;5.30;91.70;;;;;;4990326;28;20066;-80
2020/12/24 01:39:36;;;;;;;5.55;0.80;;;5.20;92.00;;;;;;4984696;28;20530;-80
2020/12/24 01:42:02;;;;;;;6.25;1.30;;;5.40;92.20;;;;;;4984710;28;20042;-81
2020/12/24 01:44:28;;;;;;;9.57;0.90;;;5.20;92.20;;;;;;4993076;28;20031;-79
2020/12/24 01:46:54;;;;;;;3.00;0.80;;;5.20;91.30;;;;;;5014854;28;20061;-79
2020/12/24 01:49:20;;;;;;;2.92;0.90;;;5.00;91.90;;;;;;4978250;28;20095;-81
2020/12/24 01:51:53;;;;;;;3.67;1.02;;;5.20;92.10;;;;;;4984445;28;20046;-79
2020/12/24 01:54:22;;;;;;;4.25;1.10;;;5.00;92.50;;;;;;4985670;28;20049;-81
2020/12/24 01:56:48;;;;;;;8.52;1.10;;;5.10;92.20;;;;;;4980774;28;20080;-81
2020/12/24 01:59:15;;;;;;;7.60;1.13;;;5.20;92.40;;;;;;4995928;28;20049;-79
2020/12/24 02:01:48;;;;;;;6.47;1.27;;;5.20;92.60;;;;;;4966331;28;20043;-80
2020/12/24 02:04:14;;;;;;;8.25;1.60;;;5.00;92.60;;;;;;4980158;28;20772;-80
2020/12/24 02:06:44;;;;;;;6.78;1.02;;;4.90;93.00;;;;;;4987607;28;20038;-80
2020/12/24 02:09:10;;;;;;;4.78;0.85;;;5.00;92.90;;;;;;4983940;28;20424;-80
2020/12/24 02:11:39;;;;;;;7.32;1.17;;;5.10;92.50;;;;;;4986576;28;20053;-80
2020/12/24 02:14:05;;;;;;;5.57;1.00;;;4.90;93.00;;;;;;4977195;28;20042;-81
2020/12/24 02:16:34;;;;;;;5.90;1.40;;;4.80;92.60;;;;;;4983270;28;20325;-80
2020/12/24 02:19:00;;;;;;;3.55;0.95;;;4.90;92.70;;;;;;4978748;28;20058;-80
2020/12/24 02:21:26;;;;;;;3.30;0.50;;;5.00;92.70;;;;;;4983527;28;20046;-81
2020/12/24 02:23:52;;;;;;;5.28;0.80;;;4.80;92.10;;;;;;4989001;28;20038;-81
2020/12/24 02:26:18;;;;;;;5.25;0.93;;;4.90;92.10;;;;;;4990996;28;20035;-80
2020/12/24 02:28:44;;;;;;;5.40;0.90;;;4.60;92.30;;;;;;4982960;28;20782;-82
2020/12/24 02:31:10;;;;;;;6.32;0.88;;;4.70;92.70;;;;;;4981981;28;20528;-81
2020/12/24 02:33:36;;;;;;;5.90;1.02;;;4.60;92.90;;;;;;4971164;28;20472;-81
2020/12/24 02:36:03;;;;;;;4.47;0.70;;;4.60;93.20;;;;;;4979164;28;20046;-81
2020/12/24 02:38:30;;;;;;;3.90;0.90;;;4.80;93.10;;;;;;4995800;28;20373;-81
2020/12/24 02:40:56;;;;;;;5.75;1.20;;;4.90;93.10;;;;;;4984219;28;20051;-81
2020/12/24 02:43:21;;;;;;;6.03;1.10;;;4.70;93.30;;;;;;4991982;28;20038;-82
2020/12/24 02:45:47;;;;;;;2.33;0.75;;;4.60;93.30;;;;;;4989401;28;21103;-80
2020/12/24 02:48:13;;;;;;;4.50;1.10;;;4.70;93.20;;;;;;4973359;28;20054;-82
2020/12/24 02:50:39;;;;;;;5.10;1.02;;;4.90;93.50;;;;;;4989071;28;20047;-81
2020/12/24 02:53:04;;;;;;;5.55;1.17;;;4.90;93.20;;;;;;4986861;28;20592;-81
2020/12/24 02:55:30;;;;;;;7.97;1.20;;;4.60;92.50;;;;;;4990364;28;20045;-82
2020/12/24 02:57:56;;;;;;;3.45;0.82;;;4.70;93.10;;;;;;4987175;28;20294;-81
2020/12/24 03:00:21;;;;;;;4.13;1.05;;;4.70;93.20;;;;;;4986951;28;20053;-81
2020/12/24 03:02:47;;;;;;;3.45;1.10;;;4.50;93.30;;;;;;4982890;28;20491;-81
2020/12/24 03:05:13;;;;;;;6.93;1.10;;;4.60;93.20;;;;;;4987636;28;20112;-81
2020/12/24 03:07:39;;;;;;;4.25;1.25;;;4.40;93.20;;;;;;4992754;28;20098;-81
2020/12/24 03:10:05;;;;;;;3.30;1.00;;;4.60;93.30;;;;;;4986428;28;20066;-81
2020/12/24 03:12:31;;;;;;;8.00;1.15;;;4.40;93.50;;;;;;4985414;28;20141;-81
2020/12/24 03:14:57;;;;;;;4.93;1.25;;;5.00;93.60;;;;;;4980463;28;20035;-81
2020/12/24 03:17:22;;;;;;;8.00;1.40;;;4.40;94.00;;;;;;4993013;28;20053;-81
2020/12/24 03:19:48;;;;;;;5.20;1.35;;;4.40;93.90;;;;;;4982163;28;20101;-81
2020/12/24 03:22:14;;;;;;;4.80;1.20;;;4.40;94.10;;;;;;4979923;28;20042;-81
2020/12/24 03:24:40;;;;;;;5.97;1.77;;;4.60;94.10;;;;;;4981354;28;20034;-81
2020/12/24 03:27:06;;;;;;;7.97;1.48;;;4.60;94.10;;;;;;5004111;28;20041;-81
2020/12/24 03:29:31;;;;;;;5.93;1.40;;;4.40;94.40;;;;;;4983734;28;20424;-81
2020/12/24 03:31:57;;;;;;;7.32;1.63;;;4.50;94.40;;;;;;4982695;28;20131;-81
2020/12/24 03:34:24;;;;;;;9.20;1.67;;;4.40;94.50;;;;;;4986346;28;20061;-81
2020/12/24 03:36:50;;;;;;;4.75;1.30;;;4.40;94.60;;;;;;4981190;28;20045;-81
2020/12/24 03:39:16;;;;;;;7.88;1.60;;;4.40;94.80;;;;;;4989271;28;20059;-82
2020/12/24 03:41:41;;;;;;;3.13;1.20;;;4.60;94.90;;;;;;4987601;28;20065;-81
2020/12/24 03:44:07;;;;;;;5.10;1.50;;;4.60;94.70;;;;;;4982700;28;20043;-82
2020/12/24 03:46:33;;;;;;;7.65;1.90;;;4.40;95.00;;;;;;4980540;28;20042;-82
2020/12/24 03:49:00;;;;;;;7.70;1.40;;;4.40;94.70;;;;;;4986725;28;20404;-80
2020/12/24 03:51:26;;;;;;;4.53;1.33;;;4.50;94.80;;;;;;4983339;28;20038;-82
2020/12/24 03:53:51;;;;;;;4.70;1.40;;;4.60;94.80;;;;;;4984403;28;20038;-80
2020/12/24 03:56:17;;;;;;;7.28;1.50;;;4.40;94.80;;;;;;4982692;28;20042;-80
2020/12/24 03:58:43;;;;;;;6.90;1.25;;;4.40;94.90;;;;;;4982732;28;20043;-79
2020/12/24 04:01:09;;;;;;;6.78;1.42;;;4.40;94.90;;;;;;4973685;28;20043;-79
2020/12/24 04:03:35;;;;;;;9.32;1.52;;;4.40;95.00;;;;;;4981706;28;20038;-79
2020/12/24 04:06:04;;;;;;;6.88;1.58;;;4.40;95.10;;;;;;5013650;28;20080;-80
2020/12/24 04:08:30;;;;;;;5.32;1.45;;;4.40;95.00;;;;;;4986701;28;20074;-79
2020/12/24 04:10:55;;;;;;;5.25;1.50;;;4.40;95.10;;;;;;4995750;28;20482;-80
2020/12/24 04:13:21;;;;;;;6.85;1.42;;;4.50;95.40;;;;;;4985258;28;20341;-80
2020/12/24 04:15:47;;;;;;;4.22;1.30;;;4.50;95.70;;;;;;4970814;28;20046;-79
2020/12/24 04:18:13;;;;;;;7.57;1.45;;;4.60;96.00;;;;;;4978416;28;20038;-79
2020/12/24 04:20:39;;;;;;;5.30;1.65;;;4.50;96.20;;;;;;4994139;28;20096;-80
2020/12/24 04:23:04;;;;;;;6.57;1.70;;;4.60;96.60;;;;;;4979252;28;20863;-79
2020/12/24 04:25:30;;;;;;;5.93;1.40;;;4.50;96.60;;;;;;4990147;28;20072;-79
2020/12/24 04:27:56;;;;;;;7.10;1.50;;;4.70;96.50;;;;;;5015905;28;20046;-79
2020/12/24 04:30:22;;;;;;;5.07;1.40;;;4.60;96.40;;;;;;4989945;28;20039;-79
2020/12/24 04:32:47;;;;;;;7.07;1.42;;;4.50;96.10;;;;;;4980769;28;20121;-80
2020/12/24 04:35:14;;;;;;;8.30;1.50;;;4.50;96.00;;;;;;4987212;28;20054;-80
2020/12/24 04:37:39;;;;;;;5.03;1.23;;;4.70;96.30;;;;;;4988215;28;20043;-79
2020/12/24 04:40:05;;;;;;;5.40;1.58;;;4.50;95.80;;;;;;4988494;28;20182;-80
2020/12/24 04:42:31;;;;;;;6.03;1.55;;;4.50;96.00;;;;;;4992909;28;20049;-80
2020/12/24 04:44:59;;;;;;;8.57;2.10;;;4.50;96.00;;;;;;4985063;28;20122;-80
2020/12/24 04:47:25;;;;;;;5.45;1.35;;;4.50;96.40;;;;;;4982224;28;20118;-80
2020/12/24 04:49:51;;;;;;;5.93;2.00;;;4.50;96.60;;;;;;4989764;28;20073;-79
2020/12/24 04:52:17;;;;;;;9.13;1.60;;;4.60;96.70;;;;;;4966056;28;20061;-79
2020/12/24 04:54:46;;;;;;;9.82;1.90;;;4.50;96.50;;;;;;4968972;28;20039;-79
2020/12/24 04:57:12;;;;;;;10.90;1.80;;;4.50;96.60;;;;;;4968822;28;20050;-79
2020/12/24 04:59:39;;;;;;;9.18;2.00;;;4.60;96.80;;;;;;4985997;28;20069;-81
2020/12/24 05:02:05;;;;;;;11.65;2.05;;;4.60;96.60;;;;;;4981759;28;20051;-80
2020/12/24 05:04:32;;;;;;;4.72;1.38;;;4.50;96.60;;;;;;4983512;28;20121;-80
2020/12/24 05:07:05;;;;;;;11.43;2.00;;;4.70;96.50;;;;;;4983739;28;20038;-79
2020/12/24 05:09:35;;;;;;;6.88;1.85;;;4.50;96.50;;;;;;4981692;28;20061;-80
2020/12/24 05:12:01;;;;;;;10.65;2.10;;;4.60;96.70;;;;;;4987247;28;20046;-80
2020/12/24 05:14:29;;;;;;;5.38;1.55;;;4.50;96.80;;;;;;4991318;28;20099;-80
2020/12/24 05:17:09;;;;;;;7.80;1.67;;;4.50;96.40;;;;;;4985528;28;20042;-80
2020/12/24 05:19:48;;;;;;;6.30;1.75;;;4.50;96.50;;;;;;4981507;28;20566;-78
2020/12/24 05:22:21;;;;;;;4.05;1.65;;;4.70;96.90;;;;;;4993042;28;20630;-81
2020/12/24 05:24:48;;;;;;;6.93;1.75;;;4.40;96.60;;;;;;4983496;28;20034;-79
2020/12/24 05:27:16;;;;;;;6.55;1.90;;;4.50;96.20;;;;;;4986251;28;20542;-80
2020/12/24 05:29:44;;;;;;;6.47;2.15;;;4.50;96.10;;;;;;4985555;28;20053;-80
2020/12/24 05:32:11;;;;;;;9.45;2.22;;;4.50;96.30;;;;;;4983990;28;20042;-80
2020/12/24 05:34:37;;;;;;;7.43;2.03;;;4.60;95.90;;;;;;4987863;28;20041;-80
2020/12/24 05:37:11;;;;;;;4.57;2.35;;;4.60;96.00;;;;;;4993269;28;20408;-78
2020/12/24 05:39:38;;;;;;;6.22;2.15;;;4.30;96.00;;;;;;4981447;28;20042;-79
2020/12/24 05:42:05;;;;;;;3.42;2.08;;;4.40;95.90;;;;;;4985753;28;20592;-78
2020/12/24 05:44:32;;;;;;;6.40;2.63;;;4.40;95.80;;;;;;4978491;28;20370;-79
2020/12/24 05:46:58;;;;;;;9.20;2.30;;;4.40;96.10;;;;;;4975887;28;20054;-80
2020/12/24 05:49:25;;;;;;;9.60;2.20;;;4.40;96.10;;;;;;4995718;28;20058;-79
2020/12/24 05:51:55;;;;;;;7.75;2.10;;;4.40;96.00;;;;;;4988134;28;20042;-80
2020/12/24 05:54:21;;;;;;;7.35;2.15;;;4.40;96.10;;;;;;4979054;28;20042;-79
2020/12/24 05:56:47;;;;;;;4.97;2.17;;;4.40;96.40;;;;;;4986750;28;20040;-80
2020/12/24 05:59:15;;;;;;;5.38;2.17;;;4.40;96.20;;;;;;4982324;28;20038;-81
2020/12/24 06:01:48;;;;;;;7.60;2.40;;;4.80;96.20;;;;;;4972930;28;20049;-81
2020/12/24 06:04:40;;;;;;;5.40;2.40;;;4.40;96.10;;;;;;5006606;28;20488;-81
2020/12/24 06:07:07;;;;;;;7.60;2.70;;;4.40;96.10;;;;;;4984247;28;20150;-80
2020/12/24 06:09:38;;;;;;;5.35;2.50;;;4.50;96.30;;;;;;4993525;28;20039;-80
2020/12/24 06:12:21;;;;;;;6.85;2.03;;;4.80;96.40;;;;;;4994058;28;20034;-80
2020/12/24 06:14:53;;;;;;;7.40;2.35;;;4.40;96.10;;;;;;4992262;28;20038;-81
2020/12/24 06:17:21;;;;;;;7.00;2.10;;;4.50;96.00;;;;;;4980745;28;20042;-80
2020/12/24 06:19:48;;;;;;;5.60;2.40;;;4.50;96.10;;;;;;4981136;28;20061;-80
2020/12/24 06:22:18;;;;;;;6.53;2.25;;;4.50;96.00;;;;;;4991797;28;20042;-79
2020/12/24 06:24:46;;;;;;;11.57;2.78;;;4.50;96.20;;;;;;4996600;28;20042;-80
2020/12/24 06:27:33;;;;;;;8.85;2.38;;;4.50;96.50;;;;;;4985360;28;20043;-80
2020/12/24 06:30:02;;;;;;;7.47;2.25;;;4.50;96.40;;;;;;5012620;28;20068;-78
2020/12/24 06:32:31;;;;;;;8.65;2.30;;;4.50;96.30;;;;;;4998523;28;20424;-81
2020/12/24 06:34:56;;;;;;;11.45;2.63;;;4.60;96.30;;;;;;4986854;28;20035;-79
2020/12/24 06:37:23;;;;;;;9.75;2.50;;;4.50;96.30;;;;;;4986709;28;20053;-79
2020/12/24 06:39:51;;;;;;;7.40;2.55;;;4.50;96.60;;;;;;4983682;28;20034;-78
2020/12/24 06:42:35;;;;;;;9.98;2.55;;;4.70;96.70;;;;;;4981496;28;20069;-80
2020/12/24 06:45:13;;;;;;;8.23;2.30;;;4.60;96.80;;;;;;5006382;28;20099;-81
2020/12/24 06:47:40;;;;;;;8.95;2.67;;;4.60;96.60;;;;;;4992445;28;20035;-82
2020/12/24 06:50:41;;;;;;;12.15;2.65;;;5.00;96.70;;;;;;4993692;28;20061;-81
2020/12/24 06:53:19;;;;;;;8.52;2.70;;;4.60;96.60;;;;;;4994007;28;20099;-81
2020/12/24 06:56:16;;;;;;;14.88;3.00;;;4.60;96.80;;;;;;4988052;28;20042;-80
2020/12/24 06:58:55;;;;;;;10.40;2.80;;;4.60;96.80;;;;;;4991935;28;20050;-81
2020/12/24 07:01:27;;;;;;;12.82;3.35;;;4.60;96.70;;;;;;4986278;28;20047;-80
2020/12/24 07:03:54;;;;;;;7.13;2.63;;;4.60;96.70;;;;;;4981161;28;20078;-81
2020/12/24 07:06:45;;;;;;;11.18;3.30;;;4.60;96.70;;;;;;4990066;28;20038;-79
2020/12/24 07:09:31;;;;;;;12.77;2.88;;;4.60;96.80;;;;;;4996245;28;20089;-81
2020/12/24 07:11:58;;;;;;;13.32;2.95;;;4.60;96.80;;;;;;4979427;28;20129;-80
2020/12/24 07:14:30;;;;;;;17.52;3.45;;;4.60;96.90;;;;;;4966456;28;20050;-80
2020/12/24 07:17:19;;;;;;;10.75;2.75;;;4.60;96.90;;;;;;4993378;28;20123;-82
2020/12/24 07:19:50;;;;;;;11.18;3.30;;;4.60;96.80;;;;;;4965088;28;20059;-81
2020/12/24 07:22:21;;;;;;;15.20;3.40;;;4.80;96.90;;;;;;4977055;28;20409;-81
2020/12/24 07:25:02;;;;;;;19.02;3.60;;;4.70;97.30;;;;;;4982201;28;20154;-81
2020/12/24 07:27:28;;;;;;;15.45;4.00;;;4.70;97.30;;;;;;4964552;28;20053;-80
2020/12/24 07:29:54;;;;;;;13.10;3.38;;;4.70;97.10;;;;;;4982426;28;20049;-79
2020/12/24 07:32:20;;;;;;;14.52;3.20;;;4.70;97.00;;;;;;4991317;28;20466;-80
2020/12/24 07:34:46;;;;;;;20.48;3.47;;;4.70;97.10;;;;;;4987575;28;20050;-81
2020/12/24 07:37:12;;;;;;;16.77;3.05;;;4.70;97.10;;;;;;4977298;28;20038;-82
2020/12/24 07:39:39;;;;;;;25.30;2.83;;;5.00;96.80;;;;;;4968992;28;20042;-79
2020/12/24 07:42:04;;;;;;;22.60;2.55;;;5.00;96.30;;;;;;4984684;28;20052;-79
2020/12/24 07:44:30;;;;;;;24.25;2.58;;;5.20;95.70;;;;;;4982007;28;20081;-80
2020/12/24 07:47:03;;;;;;;14.75;2.10;;;5.20;95.40;;;;;;4970052;28;20431;-80
2020/12/24 07:49:29;;;;;;;33.47;3.10;;;5.40;95.10;;;;;;4983255;28;20553;-80
2020/12/24 07:51:56;;;;;;;27.80;2.97;;;5.40;94.80;;;;;;4980003;28;20095;-80
2020/12/24 07:54:27;;;;;;;18.10;1.95;;;5.60;94.20;;;;;;4981127;28;20077;-81
2020/12/24 07:56:54;;;;;;;19.27;2.00;;;6.10;93.60;;;;;;4967179;28;20071;-79
2020/12/24 07:59:20;;;;;;;19.45;2.25;;;5.70;93.40;;;;;;4946554;28;20404;-78
2020/12/24 08:01:46;;;;;;;23.20;2.28;;;5.60;92.80;;;;;;4962251;28;20050;-80
2020/12/24 08:04:12;;;;;;;15.10;1.90;;;5.70;92.80;;;;;;4969461;28;20042;-77
2020/12/24 08:06:38;;;;;;;19.33;2.63;;;5.60;92.10;;;;;;4966760;28;20053;-81
2020/12/24 08:09:11;;;;;;;20.65;4.05;;;5.70;92.00;;;;;;4983151;28;20107;-82
2020/12/24 08:11:38;;;;;;;24.25;3.00;;;5.70;92.10;;;;;;4983053;28;20042;-80
2020/12/24 08:14:04;;;;;;;19.67;2.85;;;5.50;92.10;;;;;;4951523;28;20972;-80
2020/12/24 08:16:33;;;;;;;17.05;2.53;;;5.40;92.10;;;;;;4986710;28;20058;-79
2020/12/24 08:19:22;;;;;;;17.00;1.77;;;5.50;91.80;;;;;;4986211;28;20046;-80
2020/12/24 08:21:58;;;;;;;16.45;2.00;;;5.40;91.70;;;;;;4987538;28;20054;-78
2020/12/24 08:24:25;;;;;;;13.73;2.22;;;5.40;91.50;;;;;;4979344;28;20157;-80
2020/12/24 08:26:52;;;;;;;20.70;2.13;;;5.50;91.70;;;;;;5015415;28;20051;-78
2020/12/24 08:29:19;;;;;;;15.23;2.10;;;5.30;91.50;;;;;;5000032;28;20538;-79
2020/12/24 08:31:46;;;;;;;12.05;1.83;;;5.40;91.20;;;;;;4984707;28;20047;-79
2020/12/24 08:34:11;;;;;;;9.55;1.40;;;5.40;91.20;;;;;;4980838;28;20073;-78
2020/12/24 08:36:50;;;;;;;17.30;2.40;;;5.50;91.00;;;;;;4987096;28;20452;-81
2020/12/24 08:39:18;;;;;;;10.80;1.85;;;5.50;90.80;;;;;;4981335;28;20042;-80
2020/12/24 08:41:46;;;;;;;17.75;2.13;;;5.50;91.10;;;;;;4981927;28;20062;-78
2020/12/24 08:44:17;;;;;;;9.75;1.63;;;5.50;91.20;;;;;;4983823;28;20548;-83
2020/12/24 08:46:45;;;;;;;13.32;1.48;;;5.60;91.20;;;;;;4980761;28;20045;-81
2020/12/24 08:49:19;;;;;;;11.45;1.33;;;5.80;91.50;;;;;;4996065;28;20073;-81
2020/12/24 08:51:45;;;;;;;15.43;1.50;;;5.70;91.50;;;;;;4973162;28;20050;-80
2020/12/24 08:54:11;;;;;;;13.52;1.38;;;5.80;91.70;;;;;;4985551;28;20316;-80
2020/12/24 08:56:38;;;;;;;13.38;1.52;;;5.80;91.60;;;;;;4950093;28;20050;-79
2020/12/24 08:59:13;;;;;;;12.63;1.65;;;5.80;91.90;;;;;;4967864;28;20042;-79
2020/12/24 09:01:41;;;;;;;8.32;1.38;;;5.80;91.80;;;;;;4966342;28;20492;-79
2020/12/24 09:04:12;;;;;;;18.27;2.13;;;5.90;91.70;;;;;;4965054;28;20074;-77
2020/12/24 09:06:38;;;;;;;14.02;1.90;;;5.90;91.70;;;;;;4980596;28;20038;-78
2020/12/24 09:09:04;;;;;;;14.07;1.60;;;6.00;91.60;;;;;;4979186;28;20039;-78
2020/12/24 09:11:32;;;;;;;13.35;1.60;;;6.00;91.60;;;;;;4982700;28;20034;-81
2020/12/24 09:14:01;;;;;;;15.40;1.50;;;6.00;91.40;;;;;;4972593;28;20487;-81
2020/12/24 09:16:29;;;;;;;13.80;1.70;;;6.20;91.30;;;;;;4989488;28;20382;-81
2020/12/24 09:19:06;;;;;;;18.92;2.10;;;6.20;91.30;;;;;;4981276;28;20049;-81
2020/12/24 09:21:33;;;;;;;18.15;1.65;;;6.20;91.30;;;;;;4981140;28;20051;-81
2020/12/24 09:24:10;;;;;;;9.75;1.30;;;6.30;90.80;;;;;;4961164;28;20050;-80
2020/12/24 09:26:50;;;;;;;16.23;2.20;;;6.40;90.50;;;;;;4975488;28;20099;-81
2020/12/24 09:29:17;;;;;;;12.35;1.70;;;6.30;90.50;;;;;;4991397;28;20061;-81
2020/12/24 09:31:57;;;;;;;10.80;1.90;;;6.30;90.90;;;;;;4974781;28;20058;-81
2020/12/24 09:34:24;;;;;;;10.63;1.63;;;6.30;91.00;;;;;;4969286;28;20404;-81
2020/12/24 09:36:50;;;;;;;12.07;2.05;;;6.40;90.60;;;;;;4969610;28;21091;-80
2020/12/24 09:39:16;;;;;;;13.48;1.90;;;6.30;91.00;;;;;;4968856;28;20061;-82
2020/12/24 09:41:43;;;;;;;13.20;1.85;;;6.30;90.40;;;;;;4947755;28;20124;-78
2020/12/24 09:44:11;;;;;;;8.45;1.00;;;6.20;90.00;;;;;;5008555;28;20066;-79
2020/12/24 09:46:37;;;;;;;9.02;1.10;;;6.30;88.10;;;;;;4943272;28;20043;-80
2020/12/24 09:49:04;;;;;;;9.32;1.45;;;6.30;87.60;;;;;;4942867;28;20488;-80
2020/12/24 09:51:38;;;;;;;8.55;1.13;;;6.30;87.20;;;;;;5024646;28;20062;-79
2020/12/24 09:54:07;;;;;;;9.13;1.40;;;6.30;86.80;;;;;;5016750;28;20063;-83
2020/12/24 09:56:33;;;;;;;11.00;2.25;;;6.30;87.10;;;;;;4950311;28;20581;-83
2020/12/24 09:59:00;;;;;;;10.35;1.40;;;6.40;87.70;;;;;;4983043;28;20034;-82
2020/12/24 10:01:25;;;;;;;14.68;1.60;;;6.40;87.30;;;;;;4970135;28;20042;-82
2020/12/24 10:03:51;;;;;;;7.78;1.33;;;6.40;87.50;;;;;;4988323;28;20503;-82
2020/12/24 10:06:17;;;;;;;13.68;2.35;;;6.60;88.00;;;;;;4966086;28;20069;-79
2020/12/24 10:08:43;;;;;;;13.05;1.65;;;6.60;87.20;;;;;;4989766;28;20524;-81
2020/12/24 10:11:13;;;;;;;15.73;1.60;;;6.60;87.50;;;;;;4966657;28;20471;-80
2020/12/24 10:13:39;;;;;;;10.35;1.48;;;6.60;87.20;;;;;;4982810;28;20048;-81
2020/12/24 10:16:05;;;;;;;16.58;1.60;;;6.80;87.40;;;;;;4984218;28;20042;-80
2020/12/24 10:18:31;;;;;;;7.65;1.40;;;6.70;87.20;;;;;;4976323;28;20053;-81
2020/12/24 10:20:57;;;;;;;19.13;1.77;;;6.80;86.00;;;;;;4981956;28;20840;-81
2020/12/24 10:23:23;;;;;;;8.18;1.30;;;6.70;86.50;;;;;;4984041;28;20041;-81
2020/12/24 10:25:48;;;;;;;17.05;1.48;;;6.80;86.80;;;;;;4989595;28;20077;-79
2020/12/24 10:28:14;;;;;;;8.75;1.63;;;6.70;86.50;;;;;;5008476;28;20069;-80
2020/12/24 10:30:42;;;;;;;7.90;1.77;;;6.70;85.90;;;;;;4979945;28;20360;-78
2020/12/24 10:33:08;;;;;;;9.48;1.08;;;6.70;85.80;;;;;;4982616;28;20856;-80
2020/12/24 10:35:36;;;;;;;8.45;1.30;;;6.60;84.50;;;;;;4982067;28;20590;-80
2020/12/24 10:38:06;;;;;;;6.82;1.35;;;6.60;85.60;;;;;;5000742;28;20149;-83
2020/12/24 10:40:32;;;;;;;7.25;1.30;;;6.60;85.80;;;;;;4981062;28;20117;-80
2020/12/24 10:42:58;;;;;;;10.88;1.75;;;6.70;85.30;;;;;;4955331;28;20856;-78
2020/12/24 10:45:25;;;;;;;11.85;1.60;;;6.70;85.20;;;;;;4977542;28;20047;-79
2020/12/24 10:47:51;;;;;;;15.52;2.45;;;6.70;86.50;;;;;;4982317;28;20046;-80
2020/12/24 10:50:18;;;;;;;10.05;1.77;;;6.60;86.60;;;;;;4963846;28;20062;-80
2020/12/24 10:52:46;;;;;;;10.13;1.63;;;6.60;86.30;;;;;;4978210;28;20035;-83
2020/12/24 10:55:12;;;;;;;14.45;1.63;;;6.60;86.50;;;;;;4979967;28;20082;-83
2020/12/24 10:57:39;;;;;;;8.98;1.33;;;6.60;86.60;;;;;;4980774;28;20588;-82
2020/12/24 11:00:09;;;;;;;20.67;1.95;;;6.50;86.90;;;;;;4964820;28;20516;-82
2020/12/24 11:02:35;;;;;;;10.13;1.15;;;6.60;87.10;;;;;;4968114;28;20054;-81
2020/12/24 11:05:01;;;;;;;12.98;1.60;;;6.50;86.70;;;;;;4982428;28;20067;-82
2020/12/24 11:07:27;;;;;;;13.13;1.80;;;6.60;86.30;;;;;;4990603;28;20447;-82
2020/12/24 11:09:52;;;;;;;9.82;1.42;;;6.50;86.10;;;;;;4972750;28;20469;-82
2020/12/24 11:12:18;;;;;;;10.68;1.50;;;6.50;86.40;;;;;;4984816;28;20042;-81
2020/12/24 11:14:44;;;;;;;11.85;2.50;;;6.60;86.10;;;;;;4985073;28;20050;-80
2020/12/24 11:17:09;;;;;;;13.75;1.52;;;6.50;86.50;;;;;;4977726;28;20141;-80
2020/12/24 11:19:35;;;;;;;13.48;1.55;;;6.50;86.30;;;;;;4987061;28;20054;-80
2020/12/24 11:22:01;;;;;;;15.07;1.67;;;6.60;86.30;;;;;;5053299;28;20084;-81
2020/12/24 11:24:26;;;;;;;11.45;1.60;;;6.60;86.70;;;;;;4986235;28;20824;-81
2020/12/24 11:26:52;;;;;;;12.82;2.13;;;6.60;86.10;;;;;;4986742;28;20034;-81
2020/12/24 11:29:18;;;;;;;18.35;2.22;;;6.70;87.00;;;;;;4986285;28;20069;-81
2020/12/24 11:31:44;;;;;;;16.40;1.92;;;6.60;86.60;;;;;;4986935;28;20043;-80
2020/12/24 11:34:09;;;;;;;15.73;2.38;;;6.70;86.90;;;;;;4988629;28;20553;-80
2020/12/24 11:36:35;;;;;;;20.35;1.98;;;6.70;86.50;;;;;;4974190;28;20054;-80
2020/12/24 11:39:03;;;;;;;24.15;2.03;;;6.70;86.90;;;;;;4973260;28;20129;-81
2020/12/24 11:41:30;;;;;;;15.07;1.70;;;6.80;86.40;;;;;;5002392;28;20041;-80
2020/12/24 11:43:56;;;;;;;14.55;2.13;;;6.80;86.60;;;;;;4972860;28;20034;-80
2020/12/24 11:46:24;;;;;;;18.95;1.85;;;6.80;86.80;;;;;;4989636;28;20047;-80
2020/12/24 11:48:51;;;;;;;20.40;2.00;;;6.80;87.10;;;;;;4971645;28;20062;-80
2020/12/24 11:51:18;;;;;;;17.05;1.95;;;6.80;87.30;;;;;;4974556;28;20089;-80
2020/12/24 11:53:44;;;;;;;14.98;2.10;;;6.80;87.30;;;;;;4978478;28;20463;-80
2020/12/24 11:56:15;;;;;;;10.82;1.40;;;6.80;87.10;;;;;;4972978;28;20138;-80
2020/12/24 11:58:42;;;;;;;16.65;1.67;;;7.00;86.90;;;;;;4989976;28;20074;-80
2020/12/24 12:01:07;;;;;;;15.55;1.90;;;6.90;86.80;;;;;;4989143;28;20030;-80
2020/12/24 12:03:33;;;;;;;9.05;1.63;;;7.00;85.90;;;;;;4970340;28;20129;-80
2020/12/24 12:05:59;;;;;;;9.32;1.73;;;7.00;85.40;;;;;;4989842;28;20125;-80
2020/12/24 12:08:24;;;;;;;12.60;1.98;;;6.90;84.20;;;;;;5023494;28;20055;-80
2020/12/24 12:10:50;;;;;;;9.27;1.30;;;6.90;84.80;;;;;;4989165;28;20560;-80
2020/12/24 12:13:16;;;;;;;12.15;1.67;;;6.90;83.90;;;;;;4987437;28;20126;-81
2020/12/24 12:15:42;;;;;;;9.57;2.22;;;6.90;84.80;;;;;;4972713;28;20069;-80
2020/12/24 12:18:08;;;;;;;7.90;1.77;;;6.80;85.10;;;;;;4988560;28;20045;-80
2020/12/24 12:20:35;;;;;;;13.13;2.10;;;6.80;84.20;;;;;;4989431;28;20133;-79
2020/12/24 12:23:01;;;;;;;12.85;2.58;;;6.80;85.50;;;;;;4957725;28;20046;-80
2020/12/24 12:25:27;;;;;;;11.88;2.03;;;6.80;85.60;;;;;;4980537;28;20130;-80
2020/12/24 12:27:53;;;;;;;14.65;1.88;;;6.80;85.60;;;;;;4951920;28;20046;-80
2020/12/24 12:30:19;;;;;;;11.57;2.40;;;6.80;85.30;;;;;;4978754;28;20049;-80
2020/12/24 12:32:45;;;;;;;11.63;3.85;;;6.90;84.90;;;;;;4991480;28;20045;-80
2020/12/24 12:35:11;;;;;;;10.57;1.73;;;6.80;85.80;;;;;;4965051;28;20054;-80
2020/12/24 12:37:37;;;;;;;9.75;1.70;;;6.70;85.50;;;;;;4985846;28;20045;-81
2020/12/24 12:40:07;;;;;;;14.30;1.30;;;6.80;85.80;;;;;;4987742;28;20057;-81
2020/12/24 12:42:33;;;;;;;13.27;1.40;;;6.80;85.50;;;;;;4987524;28;20038;-82
2020/12/24 12:44:59;;;;;;;8.40;1.52;;;6.90;85.10;;;;;;4988840;28;20055;-82
2020/12/24 12:47:26;;;;;;;7.72;1.48;;;6.80;85.30;;;;;;4976970;28;20402;-82
2020/12/24 12:49:52;;;;;;;11.48;1.60;;;6.70;85.20;;;;;;4986783;28;20058;-79
2020/12/24 12:52:19;;;;;;;16.48;1.85;;;6.80;85.00;;;;;;4952153;28;20129;-80
2020/12/24 12:54:45;;;;;;;16.10;1.65;;;6.90;85.50;;;;;;4984264;28;20038;-82
2020/12/24 12:57:11;;;;;;;15.52;1.42;;;6.80;85.60;;;;;;4984902;28;20168;-81